Weather History for KPEQ - June, 2012

Change the Weather History Date:

Friday, June 22, 2012

  Actual Average Record
Temperature  
Mean Temperature 82 °F -  
Max Temperature 96 °F 100 °F 114 °F (1960)
Min Temperature 68 °F 66 °F 52 °F (1982)
Cooling Degree Days 16    
Growing Degree Days 32 (Base 50)    
Moisture  
Dew Point 52 °F    
Average Humidity 38    
Maximum Humidity 65    
Minimum Humidity 20    
Precipitation  
Precipitation 0.00 in - - ()
Sea Level Pressure  
Sea Level Pressure 29.98 in    
Wind  
Wind Speed 6 mph (ESE)    
Max Wind Speed 18 mph    
Max Gust Speed 23 mph    
Visibility 10 miles    
Events      
Averages and records for this station are not official NWS values.
T = Trace of Precipitation, MM = Missing Value Source: NWS Daily Summary

Daily Weather History Graph

Daily Weather History Graph

Search for Another Location

Airport or City:

Trip Planner

Search our weather history database for the weather conditions in past years. The results will help you decide how hot, cold, wet, or windy it might be!

Date:

Astronomy

Jun. 22, 2012 Rise Set
Actual Time 6:50 AM CDT 9:01 PM CDT
Civil Twilight 6:22 AM CDT 9:29 PM CDT
Nautical Twilight 5:48 AM CDT 10:04 PM CDT
Astronomical Twilight 5:11 AM CDT 10:41 PM CDT
Moon 9:41 AM CDT (6/22) 11:13 PM CDT (6/22)
Length of Visible Light 15h 07m
Length of Day
14h 11m
Waxing Crescent, 9% of the Moon is Illuminated
Jun 22
Waxing Crescent
Jun 26
First Quarter
Jul 3
Full
Jul 10
Last Quarter
Jul 18
New

Hourly Weather History & Observations

Time (CDT) Temp. Heat Index Dew Point Humidity Pressure Visibility Wind Dir Wind Speed Gust Speed Precip Events Conditions
12:15 AM 78.3 °F - 52.7 °F 41% 30.00 in 10.0 mi Calm Calm - N/A   Clear
12:35 AM 77.0 °F - 52.3 °F 42% 30.00 in 10.0 mi Calm Calm - N/A   Clear
12:55 AM 75.6 °F - 52.7 °F 45% 30.00 in 10.0 mi ESE 3.5 mph - N/A   Clear
1:15 AM 75.2 °F - 52.3 °F 45% 30.00 in 10.0 mi Calm Calm - N/A   Clear
1:35 AM 75.2 °F - 52.7 °F 45% 30.00 in 10.0 mi Calm Calm - N/A   Clear
2:15 AM 74.1 °F - 52.0 °F 46% 30.00 in 10.0 mi Calm Calm - N/A   Clear
2:35 AM 73.6 °F - 52.5 °F 48% 30.00 in 10.0 mi Calm Calm - N/A   Clear
2:55 AM 72.9 °F - 52.7 °F 49% 30.00 in 10.0 mi ENE 6.9 mph - N/A   Clear
3:15 AM 72.5 °F - 52.9 °F 50% 30.00 in 10.0 mi ENE 6.9 mph - N/A   Clear
3:35 AM 71.8 °F - 53.1 °F 52% 30.00 in 10.0 mi ENE 5.8 mph - N/A   Clear
3:55 AM 71.2 °F - 52.9 °F 52% 30.00 in 10.0 mi ENE 4.6 mph - N/A   Clear
4:15 AM 70.7 °F - 52.7 °F 53% 30.00 in 10.0 mi ENE 4.6 mph - N/A   Clear
4:35 AM 70.0 °F - 52.7 °F 54% 30.00 in 10.0 mi East 6.9 mph - N/A   Clear
4:55 AM 69.1 °F - 53.1 °F 57% 30.01 in 10.0 mi East 8.1 mph - N/A   Clear
5:15 AM 68.9 °F - 53.2 °F 57% 30.01 in 10.0 mi East 6.9 mph - N/A   Clear
5:35 AM 68.9 °F - 53.6 °F 58% 30.01 in 10.0 mi East 5.8 mph - N/A   Clear
5:55 AM 68.9 °F - 54.3 °F 60% 30.02 in 10.0 mi East 3.5 mph - N/A   Clear
6:15 AM 68.9 °F - 54.9 °F 61% 30.03 in 10.0 mi ENE 3.5 mph - N/A   Clear
6:35 AM 69.1 °F - 55.4 °F 62% 30.03 in 10.0 mi Calm Calm - N/A   Clear
6:55 AM 69.3 °F - 55.9 °F 62% 30.03 in 10.0 mi East 3.5 mph - N/A   Clear
7:15 AM 68.9 °F - 56.7 °F 65% 30.03 in 10.0 mi East 3.5 mph - N/A   Clear
7:35 AM 71.1 °F - 57.6 °F 62% 30.03 in 10.0 mi East 4.6 mph - N/A   Clear
7:55 AM 72.9 °F - 57.6 °F 59% 30.04 in 10.0 mi ESE 5.8 mph - N/A   Clear
8:15 AM 74.8 °F - 57.6 °F 55% 30.04 in 10.0 mi ESE 9.2 mph - N/A   Clear
8:35 AM 76.5 °F - 56.7 °F 50% 30.04 in 10.0 mi ESE 12.7 mph - N/A   Clear
8:55 AM 78.1 °F - 56.3 °F 47% 30.04 in 10.0 mi SE 11.5 mph - N/A   Clear
9:15 AM 80.4 °F 80.5 °F 56.1 °F 43% 30.04 in 10.0 mi ESE 10.4 mph - N/A   Clear
9:35 AM 81.7 °F 81.3 °F 55.6 °F 41% 30.05 in 10.0 mi SE 9.2 mph - N/A   Clear
9:55 AM 83.5 °F 82.5 °F 55.2 °F 38% 30.05 in 10.0 mi SE 10.4 mph 17.3 mph N/A   Clear
10:15 AM 85.6 °F 84.0 °F 54.1 °F 34% 30.05 in 10.0 mi SE 11.5 mph - N/A   Clear
10:35 AM 86.5 °F 84.7 °F 54.1 °F 33% 30.05 in 10.0 mi SE 9.2 mph 17.3 mph N/A   Clear
10:55 AM 87.3 °F 85.3 °F 54.1 °F 32% 30.04 in 10.0 mi ESE 12.7 mph 17.3 mph N/A   Clear
11:15 AM 87.6 °F 85.7 °F 54.1 °F 32% 30.04 in 10.0 mi ESE 12.7 mph 17.3 mph N/A   Clear
11:35 AM 89.2 °F 87.3 °F 54.5 °F 31% 30.04 in 10.0 mi SE 12.7 mph 20.7 mph N/A   Clear
11:55 AM 89.6 °F 87.5 °F 54.3 °F 30% 30.04 in 10.0 mi ESE 11.5 mph 17.3 mph N/A   Clear
12:15 PM 90.3 °F 88.1 °F 53.8 °F 29% 30.04 in 10.0 mi ESE 15.0 mph 21.9 mph N/A   Clear
12:35 PM 90.5 °F 88.3 °F 54.1 °F 29% 30.03 in 10.0 mi SE 9.2 mph 18.4 mph N/A   Clear
12:55 PM 91.8 °F 89.3 °F 53.6 °F 27% 30.03 in 10.0 mi SE 15.0 mph 20.7 mph N/A   Clear
1:15 PM 92.5 °F - 52.9 °F 26% 30.02 in 10.0 mi ESE 13.8 mph 20.7 mph N/A   Clear
1:55 PM 93.2 °F - 50.9 °F 24% 30.00 in 10.0 mi SE 11.5 mph - N/A   Clear
2:15 PM 94.3 °F - 50.4 °F 22% 29.99 in 10.0 mi East 15.0 mph 21.9 mph N/A   Clear
3:55 PM 95.5 °F - 50.4 °F 22% 29.96 in 10.0 mi ESE 9.2 mph 20.7 mph N/A   Clear
4:35 PM 95.9 °F - 49.6 °F 21% 29.95 in 10.0 mi SE 12.7 mph 23.0 mph N/A   Clear
4:55 PM 95.4 °F - 50.2 °F 21% 29.93 in 10.0 mi SE 6.9 mph 18.4 mph N/A   Clear
5:15 PM 95.9 °F - 49.8 °F 21% 29.93 in 10.0 mi East 9.2 mph - N/A   Clear
5:35 PM 95.0 °F - 49.6 °F 21% 29.92 in 10.0 mi ESE 16.1 mph 21.9 mph N/A   Clear
5:55 PM 95.2 °F - 49.3 °F 21% 29.91 in 10.0 mi ESE 15.0 mph 19.6 mph N/A   Clear
6:15 PM 95.2 °F - 48.6 °F 20% 29.91 in 10.0 mi ESE 13.8 mph 20.7 mph N/A   Clear
6:35 PM 94.6 °F - 48.4 °F 21% 29.90 in 10.0 mi East 13.8 mph 17.3 mph N/A   Clear
6:55 PM 93.7 °F - 48.6 °F 21% 29.90 in 10.0 mi ESE 13.8 mph 19.6 mph N/A   Clear
7:15 PM 93.9 °F - 49.1 °F 22% 29.90 in 10.0 mi ESE 12.7 mph 21.9 mph N/A   Clear
7:35 PM 92.8 °F - 49.5 °F 23% 29.90 in 10.0 mi ESE 15.0 mph 18.4 mph N/A   Clear
7:55 PM 92.3 °F - 50.0 °F 24% 29.90 in 10.0 mi ESE 17.3 mph 23.0 mph N/A   Clear
8:15 PM 91.0 °F - 49.6 °F 24% 29.91 in 10.0 mi ESE 16.1 mph - N/A   Clear
8:35 PM 90.0 °F - 49.5 °F 25% 29.91 in 10.0 mi ESE 18.4 mph - N/A   Clear
8:55 PM 88.7 °F - 50.0 °F 26% 29.91 in 10.0 mi ESE 15.0 mph - N/A   Clear
9:15 PM 87.4 °F - 50.4 °F 28% 29.91 in 10.0 mi ESE 13.8 mph - N/A   Clear
9:35 PM 86.7 °F - 50.0 °F 28% 29.92 in 10.0 mi ESE 12.7 mph 19.6 mph N/A   Clear
9:55 PM 85.1 °F - 50.0 °F 30% 29.92 in 10.0 mi ESE 9.2 mph - N/A   Clear
10:15 PM 83.8 °F - 50.0 °F 31% 29.93 in 10.0 mi SE 8.1 mph - N/A   Clear
10:35 PM 83.1 °F - 49.5 °F 31% 29.93 in 10.0 mi SE 8.1 mph - N/A   Clear
10:55 PM 81.5 °F - 49.3 °F 32% 29.94 in 10.0 mi SE 6.9 mph - N/A   Clear
11:15 PM 79.7 °F - 48.6 °F 33% 29.94 in 10.0 mi SE 6.9 mph - N/A   Clear
11:35 PM 78.6 °F - 48.2 °F 34% 29.95 in 10.0 mi SE 6.9 mph - N/A   Clear
11:55 PM 77.4 °F - 48.2 °F 36% 29.95 in 10.0 mi SE 6.9 mph - N/A   Clear